sensor_id;sensor_type;location;lat;lon;timestamp;P1;durP1;ratioP1;P2;durP2;ratioP2
52266;SDS011;38223;50.940;4.034;2023-06-04T00:02:05;1.95;;;1.20;;
52266;SDS011;38223;50.940;4.034;2023-06-04T00:04:39;2.58;;;1.22;;
52266;SDS011;38223;50.940;4.034;2023-06-04T00:07:09;2.92;;;1.30;;
52266;SDS011;38223;50.940;4.034;2023-06-04T00:09:45;6.20;;;1.10;;
52266;SDS011;38223;50.940;4.034;2023-06-04T00:12:18;3.40;;;1.30;;
52266;SDS011;38223;50.940;4.034;2023-06-04T00:14:53;3.15;;;1.12;;
52266;SDS011;38223;50.940;4.034;2023-06-04T00:17:23;4.45;;;1.32;;
52266;SDS011;38223;50.940;4.034;2023-06-04T00:19:57;5.58;;;1.20;;
52266;SDS011;38223;50.940;4.034;2023-06-04T00:22:29;11.48;;;1.30;;
52266;SDS011;38223;50.940;4.034;2023-06-04T00:25:04;2.42;;;1.30;;
52266;SDS011;38223;50.940;4.034;2023-06-04T00:27:37;3.52;;;1.20;;
52266;SDS011;38223;50.940;4.034;2023-06-04T00:30:10;1.75;;;1.50;;
52266;SDS011;38223;50.940;4.034;2023-06-04T00:32:44;4.03;;;1.42;;
52266;SDS011;38223;50.940;4.034;2023-06-04T00:35:32;5.20;;;1.32;;
52266;SDS011;38223;50.940;4.034;2023-06-04T00:38:07;3.00;;;1.32;;
52266;SDS011;38223;50.940;4.034;2023-06-04T00:40:37;1.30;;;1.20;;
52266;SDS011;38223;50.940;4.034;2023-06-04T00:43:09;7.55;;;1.50;;
52266;SDS011;38223;50.940;4.034;2023-06-04T00:45:45;7.00;;;1.37;;
52266;SDS011;38223;50.940;4.034;2023-06-04T00:48:19;3.27;;;1.30;;
52266;SDS011;38223;50.940;4.034;2023-06-04T00:50:55;4.35;;;1.60;;
52266;SDS011;38223;50.940;4.034;2023-06-04T00:53:25;3.00;;;1.50;;
52266;SDS011;38223;50.940;4.034;2023-06-04T00:56:00;4.92;;;1.45;;
52266;SDS011;38223;50.940;4.034;2023-06-04T00:58:33;4.45;;;1.67;;
52266;SDS011;38223;50.940;4.034;2023-06-04T01:01:07;3.37;;;1.50;;
52266;SDS011;38223;50.940;4.034;2023-06-04T01:03:38;2.87;;;1.70;;
52266;SDS011;38223;50.940;4.034;2023-06-04T01:06:13;2.70;;;1.40;;
52266;SDS011;38223;50.940;4.034;2023-06-04T01:08:46;3.45;;;1.67;;
52266;SDS011;38223;50.940;4.034;2023-06-04T01:11:16;4.05;;;1.37;;
52266;SDS011;38223;50.940;4.034;2023-06-04T01:13:55;3.47;;;1.42;;
52266;SDS011;38223;50.940;4.034;2023-06-04T01:16:29;3.47;;;1.80;;
52266;SDS011;38223;50.940;4.034;2023-06-04T01:19:01;5.67;;;1.50;;
52266;SDS011;38223;50.940;4.034;2023-06-04T01:21:36;4.37;;;1.60;;
52266;SDS011;38223;50.940;4.034;2023-06-04T01:24:10;4.15;;;1.50;;
52266;SDS011;38223;50.940;4.034;2023-06-04T01:26:43;4.03;;;1.50;;
52266;SDS011;38223;50.940;4.034;2023-06-04T01:29:14;3.35;;;1.70;;
52266;SDS011;38223;50.940;4.034;2023-06-04T01:31:46;3.75;;;1.45;;
52266;SDS011;38223;50.940;4.034;2023-06-04T01:34:18;3.75;;;1.60;;
52266;SDS011;38223;50.940;4.034;2023-06-04T01:36:48;3.10;;;1.80;;
52266;SDS011;38223;50.940;4.034;2023-06-04T01:41:53;6.47;;;1.80;;
52266;SDS011;38223;50.940;4.034;2023-06-04T01:44:28;6.35;;;1.98;;
52266;SDS011;38223;50.940;4.034;2023-06-04T01:46:58;3.70;;;1.70;;
52266;SDS011;38223;50.940;4.034;2023-06-04T01:51:58;6.10;;;1.90;;
52266;SDS011;38223;50.940;4.034;2023-06-04T01:54:29;4.55;;;1.80;;
52266;SDS011;38223;50.940;4.034;2023-06-04T01:57:01;3.00;;;1.90;;
52266;SDS011;38223;50.940;4.034;2023-06-04T01:59:36;4.15;;;2.50;;
52266;SDS011;38223;50.940;4.034;2023-06-04T02:02:09;5.37;;;2.00;;
52266;SDS011;38223;50.940;4.034;2023-06-04T02:04:40;5.78;;;2.25;;
52266;SDS011;38223;50.940;4.034;2023-06-04T02:07:12;3.40;;;2.33;;
52266;SDS011;38223;50.940;4.034;2023-06-04T02:09:50;4.30;;;1.87;;
52266;SDS011;38223;50.940;4.034;2023-06-04T02:12:23;2.77;;;1.85;;
52266;SDS011;38223;50.940;4.034;2023-06-04T02:14:59;6.20;;;2.30;;
52266;SDS011;38223;50.940;4.034;2023-06-04T02:17:28;4.85;;;1.92;;
52266;SDS011;38223;50.940;4.034;2023-06-04T02:20:00;2.65;;;1.80;;
52266;SDS011;38223;50.940;4.034;2023-06-04T02:22:29;5.12;;;2.22;;
52266;SDS011;38223;50.940;4.034;2023-06-04T02:25:05;2.58;;;1.92;;
52266;SDS011;38223;50.940;4.034;2023-06-04T02:27:41;5.28;;;2.00;;
52266;SDS011;38223;50.940;4.034;2023-06-04T02:30:13;3.47;;;1.80;;
52266;SDS011;38223;50.940;4.034;2023-06-04T02:32:44;2.67;;;1.85;;
52266;SDS011;38223;50.940;4.034;2023-06-04T02:35:19;6.20;;;2.25;;
52266;SDS011;38223;50.940;4.034;2023-06-04T02:38:06;2.52;;;1.98;;
52266;SDS011;38223;50.940;4.034;2023-06-04T02:40:38;2.95;;;1.87;;
52266;SDS011;38223;50.940;4.034;2023-06-04T02:43:11;4.33;;;2.08;;
52266;SDS011;38223;50.940;4.034;2023-06-04T02:45:45;5.20;;;2.08;;
52266;SDS011;38223;50.940;4.034;2023-06-04T02:48:20;2.45;;;2.00;;
52266;SDS011;38223;50.940;4.034;2023-06-04T02:50:50;3.47;;;2.00;;
52266;SDS011;38223;50.940;4.034;2023-06-04T02:53:22;4.87;;;1.70;;
52266;SDS011;38223;50.940;4.034;2023-06-04T02:55:54;6.72;;;2.20;;
52266;SDS011;38223;50.940;4.034;2023-06-04T02:58:31;4.00;;;1.90;;
52266;SDS011;38223;50.940;4.034;2023-06-04T03:01:05;5.37;;;2.25;;
52266;SDS011;38223;50.940;4.034;2023-06-04T03:03:36;3.83;;;2.10;;
52266;SDS011;38223;50.940;4.034;2023-06-04T03:06:13;2.10;;;1.60;;
52266;SDS011;38223;50.940;4.034;2023-06-04T03:08:43;5.30;;;2.37;;
52266;SDS011;38223;50.940;4.034;2023-06-04T03:11:15;4.78;;;2.05;;
52266;SDS011;38223;50.940;4.034;2023-06-04T03:13:47;4.87;;;2.12;;
52266;SDS011;38223;50.940;4.034;2023-06-04T03:16:21;3.30;;;2.10;;
52266;SDS011;38223;50.940;4.034;2023-06-04T03:18:51;3.52;;;1.95;;
52266;SDS011;38223;50.940;4.034;2023-06-04T03:21:25;5.33;;;2.17;;
52266;SDS011;38223;50.940;4.034;2023-06-04T03:23:59;2.90;;;2.30;;
52266;SDS011;38223;50.940;4.034;2023-06-04T03:26:31;3.98;;;2.35;;
52266;SDS011;38223;50.940;4.034;2023-06-04T03:29:06;4.15;;;2.15;;
52266;SDS011;38223;50.940;4.034;2023-06-04T03:31:53;3.05;;;2.50;;
52266;SDS011;38223;50.940;4.034;2023-06-04T03:34:22;5.15;;;2.50;;
52266;SDS011;38223;50.940;4.034;2023-06-04T03:36:54;2.75;;;2.10;;
52266;SDS011;38223;50.940;4.034;2023-06-04T03:39:31;4.50;;;2.37;;
52266;SDS011;38223;50.940;4.034;2023-06-04T03:42:07;4.35;;;2.40;;
52266;SDS011;38223;50.940;4.034;2023-06-04T03:44:38;5.80;;;2.40;;
52266;SDS011;38223;50.940;4.034;2023-06-04T03:47:09;6.05;;;2.12;;
52266;SDS011;38223;50.940;4.034;2023-06-04T03:49:39;4.35;;;2.15;;
52266;SDS011;38223;50.940;4.034;2023-06-04T03:52:13;4.62;;;2.40;;
52266;SDS011;38223;50.940;4.034;2023-06-04T03:54:44;3.22;;;2.10;;
52266;SDS011;38223;50.940;4.034;2023-06-04T03:57:16;5.22;;;2.62;;
52266;SDS011;38223;50.940;4.034;2023-06-04T03:59:52;4.42;;;2.37;;
52266;SDS011;38223;50.940;4.034;2023-06-04T04:02:30;3.52;;;1.85;;
52266;SDS011;38223;50.940;4.034;2023-06-04T04:05:04;3.40;;;2.30;;
52266;SDS011;38223;50.940;4.034;2023-06-04T04:07:33;3.05;;;2.30;;
52266;SDS011;38223;50.940;4.034;2023-06-04T04:10:08;5.83;;;2.10;;
52266;SDS011;38223;50.940;4.034;2023-06-04T04:12:43;5.17;;;2.10;;
52266;SDS011;38223;50.940;4.034;2023-06-04T04:15:13;4.62;;;2.08;;
52266;SDS011;38223;50.940;4.034;2023-06-04T04:17:44;5.95;;;2.60;;
52266;SDS011;38223;50.940;4.034;2023-06-04T04:20:18;3.67;;;1.90;;
52266;SDS011;38223;50.940;4.034;2023-06-04T04:22:45;4.65;;;2.02;;
52266;SDS011;38223;50.940;4.034;2023-06-04T04:25:20;3.35;;;2.00;;
52266;SDS011;38223;50.940;4.034;2023-06-04T04:27:54;6.05;;;2.30;;
52266;SDS011;38223;50.940;4.034;2023-06-04T04:30:27;5.17;;;2.22;;
52266;SDS011;38223;50.940;4.034;2023-06-04T04:32:59;4.60;;;2.02;;
52266;SDS011;38223;50.940;4.034;2023-06-04T04:35:32;3.83;;;2.27;;
52266;SDS011;38223;50.940;4.034;2023-06-04T04:38:04;4.12;;;2.08;;
52266;SDS011;38223;50.940;4.034;2023-06-04T04:40:34;6.97;;;2.35;;
52266;SDS011;38223;50.940;4.034;2023-06-04T04:43:06;4.97;;;2.12;;
52266;SDS011;38223;50.940;4.034;2023-06-04T04:45:42;3.40;;;2.05;;
52266;SDS011;38223;50.940;4.034;2023-06-04T04:48:11;6.50;;;2.00;;
52266;SDS011;38223;50.940;4.034;2023-06-04T04:50:46;3.40;;;1.92;;
52266;SDS011;38223;50.940;4.034;2023-06-04T04:53:17;2.52;;;2.08;;
52266;SDS011;38223;50.940;4.034;2023-06-04T04:55:50;3.90;;;2.08;;
52266;SDS011;38223;50.940;4.034;2023-06-04T04:58:20;4.83;;;2.27;;
52266;SDS011;38223;50.940;4.034;2023-06-04T05:00:52;5.12;;;2.12;;
52266;SDS011;38223;50.940;4.034;2023-06-04T05:03:25;6.62;;;2.20;;
52266;SDS011;38223;50.940;4.034;2023-06-04T05:06:01;9.28;;;2.25;;
52266;SDS011;38223;50.940;4.034;2023-06-04T05:08:34;3.00;;;2.08;;
52266;SDS011;38223;50.940;4.034;2023-06-04T05:11:04;3.72;;;2.33;;
52266;SDS011;38223;50.940;4.034;2023-06-04T05:13:36;7.80;;;2.37;;
52266;SDS011;38223;50.940;4.034;2023-06-04T05:16:06;3.15;;;1.80;;
52266;SDS011;38223;50.940;4.034;2023-06-04T05:18:41;4.05;;;1.90;;
52266;SDS011;38223;50.940;4.034;2023-06-04T05:21:11;4.92;;;2.05;;
52266;SDS011;38223;50.940;4.034;2023-06-04T05:23:46;3.42;;;1.82;;
52266;SDS011;38223;50.940;4.034;2023-06-04T05:26:18;2.83;;;1.92;;
52266;SDS011;38223;50.940;4.034;2023-06-04T05:28:58;3.98;;;2.10;;
52266;SDS011;38223;50.940;4.034;2023-06-04T05:31:33;2.77;;;1.87;;
52266;SDS011;38223;50.940;4.034;2023-06-04T05:34:09;2.37;;;1.92;;
52266;SDS011;38223;50.940;4.034;2023-06-04T05:36:46;3.75;;;1.95;;
52266;SDS011;38223;50.940;4.034;2023-06-04T05:39:23;8.68;;;2.50;;
52266;SDS011;38223;50.940;4.034;2023-06-04T05:42:02;4.03;;;2.20;;
52266;SDS011;38223;50.940;4.034;2023-06-04T05:44:43;3.42;;;2.05;;
52266;SDS011;38223;50.940;4.034;2023-06-04T05:47:16;6.70;;;2.55;;
52266;SDS011;38223;50.940;4.034;2023-06-04T05:49:54;3.35;;;2.30;;
52266;SDS011;38223;50.940;4.034;2023-06-04T05:52:32;3.40;;;2.00;;
52266;SDS011;38223;50.940;4.034;2023-06-04T05:55:06;4.28;;;2.37;;
52266;SDS011;38223;50.940;4.034;2023-06-04T05:57:38;4.12;;;2.02;;
52266;SDS011;38223;50.940;4.034;2023-06-04T06:00:24;3.10;;;2.25;;
52266;SDS011;38223;50.940;4.034;2023-06-04T06:03:00;3.20;;;2.42;;
52266;SDS011;38223;50.940;4.034;2023-06-04T06:08:19;5.72;;;2.27;;
52266;SDS011;38223;50.940;4.034;2023-06-04T06:10:57;2.50;;;1.92;;
52266;SDS011;38223;50.940;4.034;2023-06-04T06:13:29;4.03;;;2.00;;
52266;SDS011;38223;50.940;4.034;2023-06-04T06:16:11;3.67;;;1.90;;
52266;SDS011;38223;50.940;4.034;2023-06-04T06:18:45;2.35;;;2.12;;
52266;SDS011;38223;50.940;4.034;2023-06-04T06:21:24;6.55;;;2.27;;
52266;SDS011;38223;50.940;4.034;2023-06-04T06:23:58;2.65;;;2.02;;
52266;SDS011;38223;50.940;4.034;2023-06-04T06:26:33;2.65;;;2.00;;
52266;SDS011;38223;50.940;4.034;2023-06-04T06:29:14;3.35;;;2.15;;
52266;SDS011;38223;50.940;4.034;2023-06-04T06:31:49;3.02;;;2.00;;
52266;SDS011;38223;50.940;4.034;2023-06-04T06:34:37;2.65;;;2.00;;
52266;SDS011;38223;50.940;4.034;2023-06-04T06:37:10;5.17;;;2.12;;
52266;SDS011;38223;50.940;4.034;2023-06-04T06:39:48;3.22;;;2.08;;
52266;SDS011;38223;50.940;4.034;2023-06-04T06:42:23;3.15;;;1.80;;
52266;SDS011;38223;50.940;4.034;2023-06-04T06:45:13;2.72;;;1.80;;
52266;SDS011;38223;50.940;4.034;2023-06-04T06:47:45;4.10;;;2.15;;
52266;SDS011;38223;50.940;4.034;2023-06-04T06:50:24;7.80;;;1.90;;
52266;SDS011;38223;50.940;4.034;2023-06-04T06:52:53;3.87;;;2.20;;
52266;SDS011;38223;50.940;4.034;2023-06-04T06:55:27;3.15;;;2.15;;
52266;SDS011;38223;50.940;4.034;2023-06-04T06:58:02;3.58;;;2.20;;
52266;SDS011;38223;50.940;4.034;2023-06-04T07:00:35;2.95;;;1.80;;
52266;SDS011;38223;50.940;4.034;2023-06-04T07:03:27;2.30;;;2.02;;
52266;SDS011;38223;50.940;4.034;2023-06-04T07:06:05;4.70;;;2.20;;
52266;SDS011;38223;50.940;4.034;2023-06-04T07:08:50;3.40;;;1.75;;
52266;SDS011;38223;50.940;4.034;2023-06-04T07:11:32;4.50;;;2.12;;
52266;SDS011;38223;50.940;4.034;2023-06-04T07:14:19;2.08;;;1.57;;
52266;SDS011;38223;50.940;4.034;2023-06-04T07:16:53;6.33;;;2.02;;
52266;SDS011;38223;50.940;4.034;2023-06-04T07:19:32;3.73;;;1.97;;
52266;SDS011;38223;50.940;4.034;2023-06-04T07:22:10;2.00;;;1.75;;
52266;SDS011;38223;50.940;4.034;2023-06-04T07:24:51;3.20;;;1.57;;
52266;SDS011;38223;50.940;4.034;2023-06-04T07:27:27;6.28;;;2.27;;
52266;SDS011;38223;50.940;4.034;2023-06-04T07:30:02;2.65;;;1.77;;
52266;SDS011;38223;50.940;4.034;2023-06-04T07:32:37;1.77;;;1.47;;
52266;SDS011;38223;50.940;4.034;2023-06-04T07:35:18;4.12;;;1.98;;
52266;SDS011;38223;50.940;4.034;2023-06-04T07:37:55;6.35;;;1.72;;
52266;SDS011;38223;50.940;4.034;2023-06-04T07:40:30;2.08;;;1.22;;
52266;SDS011;38223;50.940;4.034;2023-06-04T07:43:02;4.50;;;1.50;;
52266;SDS011;38223;50.940;4.034;2023-06-04T07:45:37;5.95;;;1.80;;
52266;SDS011;38223;50.940;4.034;2023-06-04T07:48:23;2.12;;;1.50;;
52266;SDS011;38223;50.940;4.034;2023-06-04T07:51:13;2.80;;;1.82;;
52266;SDS011;38223;50.940;4.034;2023-06-04T07:53:45;2.83;;;1.70;;
52266;SDS011;38223;50.940;4.034;2023-06-04T07:56:22;1.82;;;1.40;;
52266;SDS011;38223;50.940;4.034;2023-06-04T07:58:58;5.55;;;1.67;;
52266;SDS011;38223;50.940;4.034;2023-06-04T08:01:28;4.72;;;1.40;;
52266;SDS011;38223;50.940;4.034;2023-06-04T08:04:04;1.75;;;1.25;;
52266;SDS011;38223;50.940;4.034;2023-06-04T08:06:38;2.58;;;1.37;;
52266;SDS011;38223;50.940;4.034;2023-06-04T08:09:11;2.50;;;1.40;;
52266;SDS011;38223;50.940;4.034;2023-06-04T08:11:44;3.08;;;1.65;;
52266;SDS011;38223;50.940;4.034;2023-06-04T08:14:18;1.60;;;1.30;;
52266;SDS011;38223;50.940;4.034;2023-06-04T08:16:48;3.22;;;1.40;;
52266;SDS011;38223;50.940;4.034;2023-06-04T08:19:23;3.58;;;1.50;;
52266;SDS011;38223;50.940;4.034;2023-06-04T08:22:02;2.27;;;1.40;;
52266;SDS011;38223;50.940;4.034;2023-06-04T08:24:34;1.22;;;1.02;;
52266;SDS011;38223;50.940;4.034;2023-06-04T08:27:06;2.02;;;1.27;;
52266;SDS011;38223;50.940;4.034;2023-06-04T08:29:35;4.83;;;1.40;;
52266;SDS011;38223;50.940;4.034;2023-06-04T08:32:09;2.08;;;1.20;;
52266;SDS011;38223;50.940;4.034;2023-06-04T08:34:39;3.15;;;0.90;;
52266;SDS011;38223;50.940;4.034;2023-06-04T08:37:20;2.47;;;1.15;;
52266;SDS011;38223;50.940;4.034;2023-06-04T08:39:58;2.72;;;1.40;;
52266;SDS011;38223;50.940;4.034;2023-06-04T08:42:30;2.87;;;1.10;;
52266;SDS011;38223;50.940;4.034;2023-06-04T08:45:01;4.72;;;2.30;;
52266;SDS011;38223;50.940;4.034;2023-06-04T08:47:36;1.98;;;1.10;;
52266;SDS011;38223;50.940;4.034;2023-06-04T08:50:13;3.15;;;1.00;;
52266;SDS011;38223;50.940;4.034;2023-06-04T08:52:47;2.65;;;1.02;;
52266;SDS011;38223;50.940;4.034;2023-06-04T08:55:19;3.75;;;1.07;;
52266;SDS011;38223;50.940;4.034;2023-06-04T08:57:51;1.92;;;0.98;;
52266;SDS011;38223;50.940;4.034;2023-06-04T09:00:27;2.60;;;1.00;;
52266;SDS011;38223;50.940;4.034;2023-06-04T09:03:02;2.30;;;1.10;;
52266;SDS011;38223;50.940;4.034;2023-06-04T09:05:40;3.20;;;0.85;;
52266;SDS011;38223;50.940;4.034;2023-06-04T09:08:10;1.35;;;0.90;;
52266;SDS011;38223;50.940;4.034;2023-06-04T09:10:48;2.12;;;1.00;;
52266;SDS011;38223;50.940;4.034;2023-06-04T09:13:24;1.62;;;1.00;;
52266;SDS011;38223;50.940;4.034;2023-06-04T09:16:05;3.83;;;1.35;;
52266;SDS011;38223;50.940;4.034;2023-06-04T09:18:37;4.62;;;1.57;;
52266;SDS011;38223;50.940;4.034;2023-06-04T09:21:11;1.70;;;0.90;;
52266;SDS011;38223;50.940;4.034;2023-06-04T09:23:48;2.70;;;1.12;;
52266;SDS011;38223;50.940;4.034;2023-06-04T09:26:21;3.10;;;0.93;;
52266;SDS011;38223;50.940;4.034;2023-06-04T09:28:52;1.80;;;0.82;;
52266;SDS011;38223;50.940;4.034;2023-06-04T09:31:35;2.85;;;1.10;;
52266;SDS011;38223;50.940;4.034;2023-06-04T09:34:05;1.05;;;0.72;;
52266;SDS011;38223;50.940;4.034;2023-06-04T09:36:40;2.98;;;1.05;;
52266;SDS011;38223;50.940;4.034;2023-06-04T09:39:16;2.58;;;1.10;;
52266;SDS011;38223;50.940;4.034;2023-06-04T09:41:44;2.02;;;1.20;;
52266;SDS011;38223;50.940;4.034;2023-06-04T09:44:20;3.72;;;1.02;;
52266;SDS011;38223;50.940;4.034;2023-06-04T09:46:58;1.20;;;1.00;;
52266;SDS011;38223;50.940;4.034;2023-06-04T09:49:39;2.37;;;0.82;;
52266;SDS011;38223;50.940;4.034;2023-06-04T09:52:00;1.40;;;0.88;;
52266;SDS011;38223;50.940;4.034;2023-06-04T09:54:37;1.80;;;1.37;;
52266;SDS011;38223;50.940;4.034;2023-06-04T09:57:16;2.83;;;1.00;;
52266;SDS011;38223;50.940;4.034;2023-06-04T09:59:50;2.15;;;1.00;;
52266;SDS011;38223;50.940;4.034;2023-06-04T10:02:20;1.40;;;0.82;;
52266;SDS011;38223;50.940;4.034;2023-06-04T10:04:58;1.62;;;1.02;;
52266;SDS011;38223;50.940;4.034;2023-06-04T10:07:29;1.12;;;0.95;;
52266;SDS011;38223;50.940;4.034;2023-06-04T10:10:00;3.62;;;1.20;;
52266;SDS011;38223;50.940;4.034;2023-06-04T10:12:40;1.20;;;0.62;;
52266;SDS011;38223;50.940;4.034;2023-06-04T10:15:12;1.72;;;1.05;;
52266;SDS011;38223;50.940;4.034;2023-06-04T10:17:43;4.62;;;0.90;;
52266;SDS011;38223;50.940;4.034;2023-06-04T10:20:19;3.22;;;0.90;;
52266;SDS011;38223;50.940;4.034;2023-06-04T10:22:50;2.87;;;1.07;;
52266;SDS011;38223;50.940;4.034;2023-06-04T10:25:29;1.37;;;1.00;;
52266;SDS011;38223;50.940;4.034;2023-06-04T10:28:00;2.77;;;1.10;;
52266;SDS011;38223;50.940;4.034;2023-06-04T10:30:37;2.85;;;1.00;;
52266;SDS011;38223;50.940;4.034;2023-06-04T10:33:10;2.92;;;1.30;;
52266;SDS011;38223;50.940;4.034;2023-06-04T10:35:42;1.62;;;0.78;;
52266;SDS011;38223;50.940;4.034;2023-06-04T10:38:11;1.55;;;0.95;;
52266;SDS011;38223;50.940;4.034;2023-06-04T10:40:44;1.05;;;0.90;;
52266;SDS011;38223;50.940;4.034;2023-06-04T10:43:16;2.45;;;1.00;;
52266;SDS011;38223;50.940;4.034;2023-06-04T10:45:46;3.90;;;1.10;;
52266;SDS011;38223;50.940;4.034;2023-06-04T10:48:35;3.12;;;0.95;;
52266;SDS011;38223;50.940;4.034;2023-06-04T10:51:07;1.87;;;1.00;;
52266;SDS011;38223;50.940;4.034;2023-06-04T10:53:42;3.30;;;1.05;;
52266;SDS011;38223;50.940;4.034;2023-06-04T10:56:11;4.28;;;1.17;;
52266;SDS011;38223;50.940;4.034;2023-06-04T10:58:44;2.12;;;0.90;;
52266;SDS011;38223;50.940;4.034;2023-06-04T11:01:22;1.27;;;0.95;;
52266;SDS011;38223;50.940;4.034;2023-06-04T11:03:46;1.35;;;0.93;;
52266;SDS011;38223;50.940;4.034;2023-06-04T11:06:18;1.20;;;1.00;;
52266;SDS011;38223;50.940;4.034;2023-06-04T11:08:47;3.17;;;0.70;;
52266;SDS011;38223;50.940;4.034;2023-06-04T11:11:18;1.77;;;0.85;;
52266;SDS011;38223;50.940;4.034;2023-06-04T11:13:51;1.70;;;0.93;;
52266;SDS011;38223;50.940;4.034;2023-06-04T11:16:21;1.42;;;0.90;;
52266;SDS011;38223;50.940;4.034;2023-06-04T11:18:59;3.17;;;0.90;;
52266;SDS011;38223;50.940;4.034;2023-06-04T11:21:29;1.40;;;1.10;;
52266;SDS011;38223;50.940;4.034;2023-06-04T11:24:03;2.90;;;0.88;;
52266;SDS011;38223;50.940;4.034;2023-06-04T11:26:36;2.05;;;0.95;;
52266;SDS011;38223;50.940;4.034;2023-06-04T11:29:06;1.70;;;0.80;;
52266;SDS011;38223;50.940;4.034;2023-06-04T11:31:43;2.17;;;0.80;;
52266;SDS011;38223;50.940;4.034;2023-06-04T11:34:24;1.90;;;0.70;;
52266;SDS011;38223;50.940;4.034;2023-06-04T11:36:56;3.58;;;1.05;;
52266;SDS011;38223;50.940;4.034;2023-06-04T11:39:37;2.47;;;0.85;;
52266;SDS011;38223;50.940;4.034;2023-06-04T11:42:07;2.02;;;0.85;;
52266;SDS011;38223;50.940;4.034;2023-06-04T11:44:40;2.27;;;1.07;;
52266;SDS011;38223;50.940;4.034;2023-06-04T11:47:14;3.85;;;0.98;;
52266;SDS011;38223;50.940;4.034;2023-06-04T11:49:47;2.52;;;0.90;;
52266;SDS011;38223;50.940;4.034;2023-06-04T11:52:18;1.57;;;1.00;;
52266;SDS011;38223;50.940;4.034;2023-06-04T11:54:53;1.95;;;0.90;;
52266;SDS011;38223;50.940;4.034;2023-06-04T11:57:24;1.37;;;0.90;;
52266;SDS011;38223;50.940;4.034;2023-06-04T11:59:54;1.90;;;0.80;;
52266;SDS011;38223;50.940;4.034;2023-06-04T12:02:28;1.35;;;0.80;;
52266;SDS011;38223;50.940;4.034;2023-06-04T12:05:10;4.80;;;1.20;;
52266;SDS011;38223;50.940;4.034;2023-06-04T12:07:46;2.95;;;0.90;;
52266;SDS011;38223;50.940;4.034;2023-06-04T12:10:21;2.65;;;0.80;;
52266;SDS011;38223;50.940;4.034;2023-06-04T12:12:56;1.67;;;1.20;;
52266;SDS011;38223;50.940;4.034;2023-06-04T12:15:30;8.03;;;1.10;;
52266;SDS011;38223;50.940;4.034;2023-06-04T12:18:00;4.30;;;1.07;;
52266;SDS011;38223;50.940;4.034;2023-06-04T12:20:38;2.20;;;0.93;;
52266;SDS011;38223;50.940;4.034;2023-06-04T12:23:08;3.20;;;1.15;;
52266;SDS011;38223;50.940;4.034;2023-06-04T12:25:43;2.02;;;0.90;;
52266;SDS011;38223;50.940;4.034;2023-06-04T12:28:20;4.50;;;1.80;;
52266;SDS011;38223;50.940;4.034;2023-06-04T12:30:49;5.05;;;1.22;;
52266;SDS011;38223;50.940;4.034;2023-06-04T12:33:19;2.58;;;0.90;;
52266;SDS011;38223;50.940;4.034;2023-06-04T12:35:51;2.17;;;1.12;;
52266;SDS011;38223;50.940;4.034;2023-06-04T12:38:22;6.62;;;1.30;;
52266;SDS011;38223;50.940;4.034;2023-06-04T12:40:54;1.27;;;0.98;;
52266;SDS011;38223;50.940;4.034;2023-06-04T12:43:26;3.98;;;1.15;;
52266;SDS011;38223;50.940;4.034;2023-06-04T12:45:59;3.52;;;0.90;;
52266;SDS011;38223;50.940;4.034;2023-06-04T12:48:31;1.15;;;1.02;;
52266;SDS011;38223;50.940;4.034;2023-06-04T12:51:05;1.27;;;0.95;;
52266;SDS011;38223;50.940;4.034;2023-06-04T12:53:35;2.17;;;1.12;;
52266;SDS011;38223;50.940;4.034;2023-06-04T12:56:09;2.85;;;1.00;;
52266;SDS011;38223;50.940;4.034;2023-06-04T12:58:44;1.87;;;1.10;;
52266;SDS011;38223;50.940;4.034;2023-06-04T13:01:24;1.32;;;0.88;;
52266;SDS011;38223;50.940;4.034;2023-06-04T13:04:06;3.52;;;1.05;;
52266;SDS011;38223;50.940;4.034;2023-06-04T13:06:40;2.05;;;1.10;;
52266;SDS011;38223;50.940;4.034;2023-06-04T13:09:20;1.77;;;1.10;;
52266;SDS011;38223;50.940;4.034;2023-06-04T13:11:52;3.60;;;1.25;;
52266;SDS011;38223;50.940;4.034;2023-06-04T13:14:23;3.98;;;1.47;;
52266;SDS011;38223;50.940;4.034;2023-06-04T13:17:03;4.30;;;1.30;;
52266;SDS011;38223;50.940;4.034;2023-06-04T13:19:30;1.70;;;1.10;;
52266;SDS011;38223;50.940;4.034;2023-06-04T13:22:11;1.40;;;1.05;;
52266;SDS011;38223;50.940;4.034;2023-06-04T13:24:42;3.55;;;1.37;;
52266;SDS011;38223;50.940;4.034;2023-06-04T13:27:18;3.90;;;1.17;;
52266;SDS011;38223;50.940;4.034;2023-06-04T13:29:52;4.42;;;1.30;;
52266;SDS011;38223;50.940;4.034;2023-06-04T13:32:42;2.42;;;1.15;;
52266;SDS011;38223;50.940;4.034;2023-06-04T13:35:16;2.05;;;0.90;;
52266;SDS011;38223;50.940;4.034;2023-06-04T13:38:04;3.35;;;1.10;;
52266;SDS011;38223;50.940;4.034;2023-06-04T13:40:39;2.80;;;1.35;;
52266;SDS011;38223;50.940;4.034;2023-06-04T13:43:15;1.27;;;1.17;;
52266;SDS011;38223;50.940;4.034;2023-06-04T13:45:52;3.20;;;1.40;;
52266;SDS011;38223;50.940;4.034;2023-06-04T13:48:24;2.65;;;1.20;;
52266;SDS011;38223;50.940;4.034;2023-06-04T13:51:00;3.30;;;1.20;;
52266;SDS011;38223;50.940;4.034;2023-06-04T13:53:27;2.98;;;1.15;;
52266;SDS011;38223;50.940;4.034;2023-06-04T13:58:46;1.50;;;1.20;;
52266;SDS011;38223;50.940;4.034;2023-06-04T14:01:16;2.92;;;1.37;;
52266;SDS011;38223;50.940;4.034;2023-06-04T14:03:56;2.30;;;1.20;;
52266;SDS011;38223;50.940;4.034;2023-06-04T14:06:29;4.75;;;1.37;;
52266;SDS011;38223;50.940;4.034;2023-06-04T14:09:02;1.47;;;1.30;;
52266;SDS011;38223;50.940;4.034;2023-06-04T14:11:37;1.80;;;1.37;;
52266;SDS011;38223;50.940;4.034;2023-06-04T14:14:09;2.60;;;1.62;;
52266;SDS011;38223;50.940;4.034;2023-06-04T14:16:45;2.83;;;1.40;;
52266;SDS011;38223;50.940;4.034;2023-06-04T14:19:22;3.55;;;1.30;;
52266;SDS011;38223;50.940;4.034;2023-06-04T14:21:52;2.00;;;1.40;;
52266;SDS011;38223;50.940;4.034;2023-06-04T14:24:24;2.12;;;1.40;;
52266;SDS011;38223;50.940;4.034;2023-06-04T14:27:04;2.52;;;1.20;;
52266;SDS011;38223;50.940;4.034;2023-06-04T14:29:35;3.17;;;1.40;;
52266;SDS011;38223;50.940;4.034;2023-06-04T14:32:07;2.08;;;1.20;;
52266;SDS011;38223;50.940;4.034;2023-06-04T14:34:38;2.22;;;1.40;;
52266;SDS011;38223;50.940;4.034;2023-06-04T14:37:08;2.10;;;1.30;;
52266;SDS011;38223;50.940;4.034;2023-06-04T14:39:42;1.52;;;1.20;;
52266;SDS011;38223;50.940;4.034;2023-06-04T14:42:13;2.10;;;1.40;;
52266;SDS011;38223;50.940;4.034;2023-06-04T14:44:42;4.15;;;1.20;;
52266;SDS011;38223;50.940;4.034;2023-06-04T14:47:21;2.25;;;1.32;;
52266;SDS011;38223;50.940;4.034;2023-06-04T14:49:56;1.50;;;1.20;;
52266;SDS011;38223;50.940;4.034;2023-06-04T14:52:44;2.77;;;1.22;;
52266;SDS011;38223;50.940;4.034;2023-06-04T14:55:18;3.70;;;1.32;;
52266;SDS011;38223;50.940;4.034;2023-06-04T14:57:49;4.42;;;1.30;;
52266;SDS011;38223;50.940;4.034;2023-06-04T15:00:26;2.05;;;1.30;;
52266;SDS011;38223;50.940;4.034;2023-06-04T15:02:58;3.02;;;1.40;;
52266;SDS011;38223;50.940;4.034;2023-06-04T15:05:34;2.60;;;1.40;;
52266;SDS011;38223;50.940;4.034;2023-06-04T15:08:02;2.30;;;1.10;;
52266;SDS011;38223;50.940;4.034;2023-06-04T15:10:33;3.17;;;1.30;;
52266;SDS011;38223;50.940;4.034;2023-06-04T15:13:01;3.65;;;1.07;;
52266;SDS011;38223;50.940;4.034;2023-06-04T15:15:29;3.42;;;1.30;;
52266;SDS011;38223;50.940;4.034;2023-06-04T15:17:56;2.10;;;1.25;;
52266;SDS011;38223;50.940;4.034;2023-06-04T15:20:24;3.35;;;1.20;;
52266;SDS011;38223;50.940;4.034;2023-06-04T15:22:58;5.35;;;1.50;;
52266;SDS011;38223;50.940;4.034;2023-06-04T15:25:32;1.50;;;1.20;;
52266;SDS011;38223;50.940;4.034;2023-06-04T15:28:08;1.75;;;1.32;;
52266;SDS011;38223;50.940;4.034;2023-06-04T15:30:41;5.87;;;1.55;;
52266;SDS011;38223;50.940;4.034;2023-06-04T15:33:13;3.33;;;1.32;;
52266;SDS011;38223;50.940;4.034;2023-06-04T15:35:53;2.10;;;1.30;;
52266;SDS011;38223;50.940;4.034;2023-06-04T15:41:15;2.17;;;1.12;;
52266;SDS011;38223;50.940;4.034;2023-06-04T15:43:44;3.27;;;1.42;;